sensor_id;sensor_type;location;lat;lon;timestamp;temperature;humidity
45945;DHT22;31655;48.972;10.686;2023-04-15T02:13:40;4.40;99.90
45945;DHT22;31655;48.972;10.686;2023-04-15T02:16:15;4.40;99.90
45945;DHT22;31655;48.972;10.686;2023-04-15T02:26:08;4.40;99.90
45945;DHT22;31655;48.972;10.686;2023-04-15T05:42:47;5.10;99.90
45945;DHT22;31655;48.972;10.686;2023-04-15T05:50:05;5.20;99.90
45945;DHT22;31655;48.972;10.686;2023-04-15T05:57:23;5.30;99.90
45945;DHT22;31655;48.972;10.686;2023-04-15T06:02:17;5.60;99.90
45945;DHT22;31655;48.972;10.686;2023-04-15T06:09:35;6.20;99.90
45945;DHT22;31655;48.972;10.686;2023-04-15T06:14:27;6.50;99.90
45945;DHT22;31655;48.972;10.686;2023-04-15T06:26:37;7.00;99.90
45945;DHT22;31655;48.972;10.686;2023-04-15T06:36:21;7.10;99.90
45945;DHT22;31655;48.972;10.686;2023-04-15T06:38:46;7.20;99.90
45945;DHT22;31655;48.972;10.686;2023-04-15T06:46:04;8.00;99.90
45945;DHT22;31655;48.972;10.686;2023-04-15T06:50:56;8.30;99.90
45945;DHT22;31655;48.972;10.686;2023-04-15T06:53:24;8.50;99.90
45945;DHT22;31655;48.972;10.686;2023-04-15T06:58:18;8.50;99.90
45945;DHT22;31655;48.972;10.686;2023-04-15T07:03:11;8.70;99.90
45945;DHT22;31655;48.972;10.686;2023-04-15T07:05:37;8.70;99.90
45945;DHT22;31655;48.972;10.686;2023-04-15T07:10:29;9.00;99.90
45945;DHT22;31655;48.972;10.686;2023-04-15T07:12:55;9.10;99.90
45945;DHT22;31655;48.972;10.686;2023-04-15T07:15:21;9.10;99.90
45945;DHT22;31655;48.972;10.686;2023-04-15T07:17:48;9.60;99.90
45945;DHT22;31655;48.972;10.686;2023-04-15T07:25:06;10.40;99.90
45945;DHT22;31655;48.972;10.686;2023-04-15T07:27:32;10.60;99.90
45945;DHT22;31655;48.972;10.686;2023-04-15T07:29:57;11.10;99.90
45945;DHT22;31655;48.972;10.686;2023-04-15T07:32:23;11.50;99.90
45945;DHT22;31655;48.972;10.686;2023-04-15T07:37:15;10.90;99.90
45945;DHT22;31655;48.972;10.686;2023-04-15T07:44:33;10.10;99.90
45945;DHT22;31655;48.972;10.686;2023-04-15T07:49:24;9.30;99.90
45945;DHT22;31655;48.972;10.686;2023-04-15T07:51:50;9.50;99.90
45945;DHT22;31655;48.972;10.686;2023-04-15T08:04:01;10.80;99.90
45945;DHT22;31655;48.972;10.686;2023-04-15T08:06:27;10.80;99.90
45945;DHT22;31655;48.972;10.686;2023-04-15T08:18:43;13.60;99.90
45945;DHT22;31655;48.972;10.686;2023-04-15T08:21:09;14.20;99.90
45945;DHT22;31655;48.972;10.686;2023-04-15T08:35:45;13.80;99.90
45945;DHT22;31655;48.972;10.686;2023-04-15T08:40:42;13.60;99.90
45945;DHT22;31655;48.972;10.686;2023-04-15T08:43:11;13.70;99.90
45945;DHT22;31655;48.972;10.686;2023-04-15T08:45:38;13.50;99.90
45945;DHT22;31655;48.972;10.686;2023-04-15T08:48:04;13.50;99.90
45945;DHT22;31655;48.972;10.686;2023-04-15T08:53:00;13.50;99.90
45945;DHT22;31655;48.972;10.686;2023-04-15T08:55:31;13.60;99.90
45945;DHT22;31655;48.972;10.686;2023-04-15T08:58:02;13.80;99.90
45945;DHT22;31655;48.972;10.686;2023-04-15T09:02:55;13.80;99.90
45945;DHT22;31655;48.972;10.686;2023-04-15T09:15:07;12.60;99.90
45945;DHT22;31655;48.972;10.686;2023-04-15T09:17:44;12.30;99.90
45945;DHT22;31655;48.972;10.686;2023-04-15T09:20:13;12.40;99.90
45945;DHT22;31655;48.972;10.686;2023-04-15T09:22:40;11.80;99.90
45945;DHT22;31655;48.972;10.686;2023-04-15T09:25:29;12.20;99.90
45945;DHT22;31655;48.972;10.686;2023-04-15T09:27:59;11.80;99.90
45945;DHT22;31655;48.972;10.686;2023-04-15T09:30:29;11.90;99.90
45945;DHT22;31655;48.972;10.686;2023-04-15T09:32:59;11.40;99.90
45945;DHT22;31655;48.972;10.686;2023-04-15T09:35:26;11.30;99.90
45945;DHT22;31655;48.972;10.686;2023-04-15T09:37:53;11.30;99.90
45945;DHT22;31655;48.972;10.686;2023-04-15T09:40:40;11.40;99.90
45945;DHT22;31655;48.972;10.686;2023-04-15T09:43:07;11.30;99.90
45945;DHT22;31655;48.972;10.686;2023-04-15T09:45:35;11.30;99.90
45945;DHT22;31655;48.972;10.686;2023-04-15T09:48:24;11.50;99.90
45945;DHT22;31655;48.972;10.686;2023-04-15T09:50:59;11.40;99.90
45945;DHT22;31655;48.972;10.686;2023-04-15T09:53:26;11.80;99.90
45945;DHT22;31655;48.972;10.686;2023-04-15T09:55:56;11.60;99.90
45945;DHT22;31655;48.972;10.686;2023-04-15T09:58:24;11.80;99.90
45945;DHT22;31655;48.972;10.686;2023-04-15T10:00:52;11.80;99.90
45945;DHT22;31655;48.972;10.686;2023-04-15T10:03:20;11.40;99.90
45945;DHT22;31655;48.972;10.686;2023-04-15T10:05:47;11.40;99.90
45945;DHT22;31655;48.972;10.686;2023-04-15T10:08:16;11.30;99.90
45945;DHT22;31655;48.972;10.686;2023-04-15T10:10:42;11.40;99.90
45945;DHT22;31655;48.972;10.686;2023-04-15T10:13:09;11.30;99.90
45945;DHT22;31655;48.972;10.686;2023-04-15T10:15:36;11.30;99.90
45945;DHT22;31655;48.972;10.686;2023-04-15T10:18:04;11.10;99.90
45945;DHT22;31655;48.972;10.686;2023-04-15T10:20:30;11.50;99.90
45945;DHT22;31655;48.972;10.686;2023-04-15T10:22:56;11.30;99.90
45945;DHT22;31655;48.972;10.686;2023-04-15T10:25:22;11.30;99.90
45945;DHT22;31655;48.972;10.686;2023-04-15T10:30:21;10.50;99.90
45945;DHT22;31655;48.972;10.686;2023-04-15T10:32:47;10.50;99.90
45945;DHT22;31655;48.972;10.686;2023-04-15T10:35:14;10.60;99.90
45945;DHT22;31655;48.972;10.686;2023-04-15T10:42:53;10.70;99.90
45945;DHT22;31655;48.972;10.686;2023-04-15T10:47:45;10.80;99.90
45945;DHT22;31655;48.972;10.686;2023-04-15T10:50:10;10.60;99.90
45945;DHT22;31655;48.972;10.686;2023-04-15T10:52:39;10.50;99.90
45945;DHT22;31655;48.972;10.686;2023-04-15T10:55:13;11.00;99.90
45945;DHT22;31655;48.972;10.686;2023-04-15T10:57:41;10.80;99.90
45945;DHT22;31655;48.972;10.686;2023-04-15T11:00:17;11.20;99.90
45945;DHT22;31655;48.972;10.686;2023-04-15T11:05:13;11.00;99.90
45945;DHT22;31655;48.972;10.686;2023-04-15T11:07:48;11.10;99.90
45945;DHT22;31655;48.972;10.686;2023-04-15T11:13:02;11.10;99.90
45945;DHT22;31655;48.972;10.686;2023-04-15T11:18:10;11.00;99.90
45945;DHT22;31655;48.972;10.686;2023-04-15T11:20:36;10.80;99.90
45945;DHT22;31655;48.972;10.686;2023-04-15T11:23:03;10.80;99.90
45945;DHT22;31655;48.972;10.686;2023-04-15T11:25:33;10.90;99.90
45945;DHT22;31655;48.972;10.686;2023-04-15T11:28:00;10.50;99.90
45945;DHT22;31655;48.972;10.686;2023-04-15T11:30:29;10.50;99.90
45945;DHT22;31655;48.972;10.686;2023-04-15T11:33:07;10.70;99.90
45945;DHT22;31655;48.972;10.686;2023-04-15T11:35:36;10.70;99.90
45945;DHT22;31655;48.972;10.686;2023-04-15T11:38:04;10.60;99.90
45945;DHT22;31655;48.972;10.686;2023-04-15T11:40:31;10.60;99.90
45945;DHT22;31655;48.972;10.686;2023-04-15T11:43:20;10.50;99.90
45945;DHT22;31655;48.972;10.686;2023-04-15T11:46:01;10.50;99.90
45945;DHT22;31655;48.972;10.686;2023-04-15T11:51:13;10.10;99.90
45945;DHT22;31655;48.972;10.686;2023-04-15T11:53:59;10.00;99.90
45945;DHT22;31655;48.972;10.686;2023-04-15T11:58:58;10.00;99.90
45945;DHT22;31655;48.972;10.686;2023-04-15T12:01:38;10.00;99.90
45945;DHT22;31655;48.972;10.686;2023-04-15T12:04:13;10.20;99.90
45945;DHT22;31655;48.972;10.686;2023-04-15T12:06:39;10.10;99.90
45945;DHT22;31655;48.972;10.686;2023-04-15T12:11:51;9.90;99.90
45945;DHT22;31655;48.972;10.686;2023-04-15T12:17:03;9.90;99.90
45945;DHT22;31655;48.972;10.686;2023-04-15T12:19:40;9.50;99.90
45945;DHT22;31655;48.972;10.686;2023-04-15T12:22:15;9.60;99.90
45945;DHT22;31655;48.972;10.686;2023-04-15T12:24:53;9.50;99.90
45945;DHT22;31655;48.972;10.686;2023-04-15T12:27:25;9.30;99.90
45945;DHT22;31655;48.972;10.686;2023-04-15T12:30:08;9.00;99.90
45945;DHT22;31655;48.972;10.686;2023-04-15T12:32:35;9.10;99.90
45945;DHT22;31655;48.972;10.686;2023-04-15T12:54:46;8.10;99.90
45945;DHT22;31655;48.972;10.686;2023-04-15T12:59:40;8.10;99.90
45945;DHT22;31655;48.972;10.686;2023-04-15T13:02:06;8.00;99.90
45945;DHT22;31655;48.972;10.686;2023-04-15T13:07:00;8.10;99.90
45945;DHT22;31655;48.972;10.686;2023-04-15T13:09:26;8.10;99.90
45945;DHT22;31655;48.972;10.686;2023-04-15T13:19:10;8.30;99.90
45945;DHT22;31655;48.972;10.686;2023-04-15T13:26:34;8.40;99.90
45945;DHT22;31655;48.972;10.686;2023-04-15T13:29:00;8.20;99.90
45945;DHT22;31655;48.972;10.686;2023-04-15T13:33:52;8.30;99.90
45945;DHT22;31655;48.972;10.686;2023-04-15T13:43:37;8.50;99.90
45945;DHT22;31655;48.972;10.686;2023-04-15T13:48:29;8.30;99.90
45945;DHT22;31655;48.972;10.686;2023-04-15T13:53:34;8.00;99.90
45945;DHT22;31655;48.972;10.686;2023-04-15T13:56:16;8.20;99.90
45945;DHT22;31655;48.972;10.686;2023-04-15T14:06:15;8.00;99.90
45945;DHT22;31655;48.972;10.686;2023-04-15T14:11:07;8.10;99.90
45945;DHT22;31655;48.972;10.686;2023-04-15T14:18:25;8.10;99.90
45945;DHT22;31655;48.972;10.686;2023-04-15T14:30:43;8.20;99.90
45945;DHT22;31655;48.972;10.686;2023-04-15T14:33:09;8.00;99.90
45945;DHT22;31655;48.972;10.686;2023-04-15T14:35:36;7.90;99.90
45945;DHT22;31655;48.972;10.686;2023-04-15T14:40:28;8.20;99.90
45945;DHT22;31655;48.972;10.686;2023-04-15T14:50:12;8.20;99.90
45945;DHT22;31655;48.972;10.686;2023-04-15T14:55:08;8.20;99.90
45945;DHT22;31655;48.972;10.686;2023-04-15T15:00:01;7.70;99.90
45945;DHT22;31655;48.972;10.686;2023-04-15T15:02:28;7.90;99.90
45945;DHT22;31655;48.972;10.686;2023-04-15T15:04:54;7.70;99.90
45945;DHT22;31655;48.972;10.686;2023-04-15T15:12:16;7.60;99.90
45945;DHT22;31655;48.972;10.686;2023-04-15T15:19:38;7.40;99.90
45945;DHT22;31655;48.972;10.686;2023-04-15T15:22:03;7.30;99.90
45945;DHT22;31655;48.972;10.686;2023-04-15T15:24:31;7.20;99.90
45945;DHT22;31655;48.972;10.686;2023-04-15T15:29:26;7.20;99.90
45945;DHT22;31655;48.972;10.686;2023-04-15T15:31:58;7.30;99.90
45945;DHT22;31655;48.972;10.686;2023-04-15T15:34:24;7.00;99.90
45945;DHT22;31655;48.972;10.686;2023-04-15T15:39:15;7.00;99.90
45945;DHT22;31655;48.972;10.686;2023-04-15T15:41:41;7.10;99.90
45945;DHT22;31655;48.972;10.686;2023-04-15T15:46:36;6.80;99.90
45945;DHT22;31655;48.972;10.686;2023-04-15T16:11:03;6.60;99.90
45945;DHT22;31655;48.972;10.686;2023-04-15T16:23:15;6.70;99.90
45945;DHT22;31655;48.972;10.686;2023-04-15T16:25:43;6.70;99.90
45945;DHT22;31655;48.972;10.686;2023-04-15T16:30:38;6.70;99.90
45945;DHT22;31655;48.972;10.686;2023-04-15T16:38:57;6.70;99.90
45945;DHT22;31655;48.972;10.686;2023-04-15T17:03:19;6.30;99.90
45945;DHT22;31655;48.972;10.686;2023-04-15T17:10:36;6.30;99.90
45945;DHT22;31655;48.972;10.686;2023-04-15T17:15:28;6.30;99.90
45945;DHT22;31655;48.972;10.686;2023-04-15T17:22:47;6.30;99.90
45945;DHT22;31655;48.972;10.686;2023-04-15T17:30:06;6.40;99.90
45945;DHT22;31655;48.972;10.686;2023-04-15T17:35:05;6.20;99.90
45945;DHT22;31655;48.972;10.686;2023-04-15T17:37:34;6.40;99.90
45945;DHT22;31655;48.972;10.686;2023-04-15T17:42:26;6.20;99.90
45945;DHT22;31655;48.972;10.686;2023-04-15T17:47:17;6.30;99.90
45945;DHT22;31655;48.972;10.686;2023-04-15T17:52:09;6.20;99.90
45945;DHT22;31655;48.972;10.686;2023-04-15T17:57:01;6.30;99.90
45945;DHT22;31655;48.972;10.686;2023-04-15T17:59:27;6.30;99.90
45945;DHT22;31655;48.972;10.686;2023-04-15T18:11:39;6.30;99.90
45945;DHT22;31655;48.972;10.686;2023-04-15T18:16:32;6.20;99.90
45945;DHT22;31655;48.972;10.686;2023-04-15T18:18:58;6.20;99.90
45945;DHT22;31655;48.972;10.686;2023-04-15T18:23:51;6.20;99.90
45945;DHT22;31655;48.972;10.686;2023-04-15T18:36:01;6.20;99.90
45945;DHT22;31655;48.972;10.686;2023-04-15T18:40:56;6.20;99.90
45945;DHT22;31655;48.972;10.686;2023-04-15T18:45:47;6.20;99.90
45945;DHT22;31655;48.972;10.686;2023-04-15T18:50:41;6.20;99.90
45945;DHT22;31655;48.972;10.686;2023-04-15T18:55:33;6.20;99.90
45945;DHT22;31655;48.972;10.686;2023-04-15T19:00:25;6.10;99.90
45945;DHT22;31655;48.972;10.686;2023-04-15T19:07:44;6.30;99.90
45945;DHT22;31655;48.972;10.686;2023-04-15T19:10:10;6.20;99.90
45945;DHT22;31655;48.972;10.686;2023-04-15T19:15:03;6.20;99.90
45945;DHT22;31655;48.972;10.686;2023-04-15T19:19:55;6.20;99.90
45945;DHT22;31655;48.972;10.686;2023-04-15T19:29:39;6.10;99.90
45945;DHT22;31655;48.972;10.686;2023-04-15T19:32:05;6.10;99.90
45945;DHT22;31655;48.972;10.686;2023-04-15T20:03:46;6.10;99.90
45945;DHT22;31655;48.972;10.686;2023-04-15T20:06:15;6.10;99.90
45945;DHT22;31655;48.972;10.686;2023-04-15T20:11:08;5.90;99.90
45945;DHT22;31655;48.972;10.686;2023-04-15T20:13:34;5.70;99.90
45945;DHT22;31655;48.972;10.686;2023-04-15T20:18:25;6.10;99.90
45945;DHT22;31655;48.972;10.686;2023-04-15T20:23:17;6.00;99.90
45945;DHT22;31655;48.972;10.686;2023-04-15T20:28:09;6.10;99.90
45945;DHT22;31655;48.972;10.686;2023-04-15T20:30:35;6.00;99.90
45945;DHT22;31655;48.972;10.686;2023-04-15T20:50:06;5.90;99.90
45945;DHT22;31655;48.972;10.686;2023-04-15T21:00:09;6.30;99.90
45945;DHT22;31655;48.972;10.686;2023-04-15T21:14:49;5.90;99.90
45945;DHT22;31655;48.972;10.686;2023-04-15T21:19:41;5.90;99.90
45945;DHT22;31655;48.972;10.686;2023-04-15T21:24:33;5.90;99.90
45945;DHT22;31655;48.972;10.686;2023-04-15T21:41:36;5.70;99.90
45945;DHT22;31655;48.972;10.686;2023-04-15T22:03:32;5.80;99.90
45945;DHT22;31655;48.972;10.686;2023-04-15T22:13:17;5.80;99.90
45945;DHT22;31655;48.972;10.686;2023-04-15T22:18:11;5.70;99.90
45945;DHT22;31655;48.972;10.686;2023-04-15T22:25:32;5.70;99.90
45945;DHT22;31655;48.972;10.686;2023-04-15T22:40:09;5.70;99.90
45945;DHT22;31655;48.972;10.686;2023-04-15T22:49:53;5.50;99.90
45945;DHT22;31655;48.972;10.686;2023-04-15T23:04:28;6.20;99.90
45945;DHT22;31655;48.972;10.686;2023-04-15T23:23:57;5.70;99.90
45945;DHT22;31655;48.972;10.686;2023-04-15T23:36:06;5.50;99.90
45945;DHT22;31655;48.972;10.686;2023-04-15T23:48:17;5.40;99.90
45945;DHT22;31655;48.972;10.686;2023-04-15T23:53:09;5.40;99.90
45945;DHT22;31655;48.972;10.686;2023-04-15T23:55:34;5.20;99.90
